Time;durP1;ratioP1;P1;durP2;ratioP2;P2;SDS_P1;SDS_P2;PMS_P1;PMS_P2;Temp;Humidity;BMP_temperature;BMP_pressure;BME280_temperature;BME280_humidity;BME280_pressure;Samples;Min_cycle;Max_cycle;Signal;HPM_P1;HPM_P2
2022/05/26 00:01:00;;;;;;;9.25;8.30;;;13.70;99.90;;;;;;5063418;28;20048;-73
2022/05/26 00:03:26;;;;;;;9.82;7.85;;;13.70;99.90;;;;;;5066655;28;20615;-73
2022/05/26 00:05:51;;;;;;;7.13;6.03;;;13.70;99.90;;;;;;5067266;28;20063;-74
2022/05/26 00:08:17;;;;;;;7.43;6.72;;;13.80;99.90;;;;;;5066231;28;20055;-74
2022/05/26 00:10:43;;;;;;;7.43;6.43;;;13.80;99.90;;;;;;5066372;28;20171;-73
2022/05/26 00:13:08;;;;;;;7.90;6.55;;;13.80;99.90;;;;;;5062585;28;20454;-73
2022/05/26 00:15:34;;;;;;;8.70;6.30;;;13.80;99.90;;;;;;5063026;28;20124;-73
2022/05/26 00:18:00;;;;;;;5.75;5.15;;;13.80;99.90;;;;;;5049014;28;20037;-73
2022/05/26 00:20:25;;;;;;;7.97;5.00;;;13.80;99.90;;;;;;5067766;28;20173;-74
2022/05/26 00:22:51;;;;;;;8.60;5.50;;;13.80;99.90;;;;;;5050961;28;20049;-73
2022/05/26 00:25:17;;;;;;;9.82;5.95;;;13.80;99.90;;;;;;5065992;28;20082;-73
2022/05/26 00:27:42;;;;;;;9.95;5.70;;;13.80;99.90;;;;;;5049441;28;20044;-73
2022/05/26 00:30:09;;;;;;;11.23;5.57;;;13.90;99.90;;;;;;5065599;28;20053;-73
2022/05/26 00:32:34;;;;;;;15.65;6.22;;;13.90;99.90;;;;;;5067564;28;20028;-74
2022/05/26 00:35:00;;;;;;;12.52;6.88;;;13.90;99.90;;;;;;5063414;28;20543;-74
2022/05/26 00:37:26;;;;;;;14.93;7.00;;;13.90;99.90;;;;;;5081177;22;20094;-77
2022/05/26 00:39:51;;;;;;;15.90;7.10;;;13.90;99.90;;;;;;5049040;28;20048;-77
2022/05/26 00:42:17;;;;;;;14.73;7.32;;;14.00;99.90;;;;;;5066689;28;20032;-77
2022/05/26 00:44:42;;;;;;;15.60;7.75;;;14.00;99.90;;;;;;5066961;28;20029;-78
2022/05/26 00:47:18;;;;;;;17.10;7.97;;;14.00;99.90;;;;;;5067008;28;20028;-78
2022/05/26 00:49:55;;;;;;;13.20;7.63;;;14.00;99.90;;;;;;5067025;28;20125;-77
2022/05/26 00:52:27;;;;;;;16.67;8.95;;;14.00;99.90;;;;;;5081461;28;20048;-77
2022/05/26 00:54:54;;;;;;;18.02;9.43;;;14.00;99.90;;;;;;5063225;28;20430;-77
2022/05/26 00:57:41;;;;;;;17.17;9.30;;;14.00;99.90;;;;;;5040289;28;20056;-77
2022/05/26 01:00:11;;;;;;;16.40;9.68;;;14.00;99.90;;;;;;5069280;28;20117;-77
2022/05/26 01:02:43;;;;;;;17.92;9.32;;;14.10;99.90;;;;;;5067529;28;20036;-77
2022/05/26 01:05:14;;;;;;;;;;;14.00;99.90;;;;;;5055710;28;20067;-77
2022/05/26 01:07:40;;;;;;;22.15;10.07;;;14.00;99.90;;;;;;5086065;28;20003;-77
2022/05/26 01:10:09;;;;;;;22.63;10.43;;;14.00;99.90;;;;;;5051533;28;20119;-77
2022/05/26 01:12:34;;;;;;;20.15;10.55;;;14.00;99.90;;;;;;5069414;28;20032;-77
2022/05/26 01:15:08;;;;;;;18.52;9.05;;;14.00;99.90;;;;;;5072510;28;20124;-77
2022/05/26 01:17:44;;;;;;;19.08;10.48;;;14.00;99.90;;;;;;5069191;28;20111;-77
2022/05/26 01:20:34;;;;;;;28.65;12.18;;;13.90;99.90;;;;;;5054484;28;20037;-77
2022/05/26 01:23:15;;;;;;;27.38;11.75;;;14.00;99.90;;;;;;5065602;28;20470;-77
2022/05/26 01:26:23;;;;;;;22.05;9.75;;;14.00;99.90;;;;;;5069759;28;20431;-78
2022/05/26 01:28:54;;;;;;;22.65;9.20;;;14.00;99.90;;;;;;5049878;28;20036;-78
2022/05/26 01:31:48;;;;;;;27.40;11.15;;;14.00;99.90;;;;;;5068239;28;20045;-78
2022/05/26 01:34:42;;;;;;;30.15;10.70;;;14.00;99.90;;;;;;5067267;28;20047;-78
2022/05/26 01:37:10;;;;;;;23.40;9.90;;;14.00;99.90;;;;;;5072632;28;20040;-78
2022/05/26 01:40:00;;;;;;;30.92;11.05;;;14.00;99.90;;;;;;5053125;28;20063;-78
2022/05/26 01:42:37;;;;;;;28.88;10.68;;;14.00;99.90;;;;;;5068204;28;20136;-78
2022/05/26 01:45:21;;;;;;;27.35;9.68;;;13.90;99.90;;;;;;5066964;28;20090;-78
2022/05/26 01:48:08;;;;;;;28.73;10.57;;;13.90;99.90;;;;;;5071188;28;20052;-78
2022/05/26 01:50:41;;;;;;;23.83;9.43;;;13.90;99.90;;;;;;5071715;28;20072;-78
2022/05/26 01:53:22;;;;;;;28.13;9.18;;;13.80;99.90;;;;;;5049892;28;20067;-77
2022/05/26 01:56:19;;;;;;;27.33;9.73;;;13.80;99.90;;;;;;5067343;28;20047;-78
2022/05/26 01:59:11;;;;;;;25.23;11.45;;;13.80;99.90;;;;;;5068110;28;20037;-78
2022/05/26 02:01:42;;;;;;;25.90;9.95;;;13.80;99.90;;;;;;5071030;28;20040;-77
2022/05/26 02:04:13;;;;;;;24.35;9.18;;;13.80;99.90;;;;;;5069738;28;20032;-77
2022/05/26 02:06:47;;;;;;;25.33;9.73;;;13.80;99.90;;;;;;5070380;28;20064;-77
2022/05/26 02:09:27;;;;;;;28.90;10.80;;;13.80;99.90;;;;;;5070909;28;20060;-78
2022/05/26 02:12:05;;;;;;;28.77;10.68;;;13.80;99.90;;;;;;5081861;28;20040;-78
2022/05/26 02:14:45;;;;;;;26.52;9.30;;;13.80;99.90;;;;;;5065736;28;20044;-78
2022/05/26 02:17:16;;;;;;;28.30;10.23;;;13.80;99.90;;;;;;5070260;28;20052;-78
2022/05/26 02:20:03;;;;;;;33.33;11.75;;;13.80;99.90;;;;;;5064141;28;20377;-77
2022/05/26 02:22:42;;;;;;;37.97;10.02;;;13.90;99.90;;;;;;5070785;28;20054;-77
2022/05/26 02:25:18;;;;;;;33.35;10.10;;;13.90;99.90;;;;;;5064466;28;20534;-78
2022/05/26 02:27:45;;;;;;;35.08;9.95;;;13.90;99.90;;;;;;5059125;28;20457;-78
2022/05/26 02:30:12;;;;;;;27.50;9.32;;;13.90;99.90;;;;;;5068753;28;20051;-77
2022/05/26 02:32:45;;;;;;;29.25;10.30;;;13.90;99.90;;;;;;5070215;28;20033;-78
2022/05/26 02:35:18;;;;;;;27.98;9.27;;;13.90;99.90;;;;;;5070796;28;20041;-78
2022/05/26 02:37:47;;;;;;;28.98;7.88;;;13.90;99.90;;;;;;5067442;28;20759;-77
2022/05/26 02:40:14;;;;;;;37.25;9.50;;;13.90;99.90;;;;;;5065466;28;20063;-78
2022/05/26 02:42:47;;;;;;;30.70;9.95;;;13.90;99.90;;;;;;5049588;28;20036;-77
2022/05/26 02:45:14;;;;;;;27.27;9.52;;;13.90;99.90;;;;;;5068293;28;20070;-78
2022/05/26 02:47:49;;;;;;;27.23;8.85;;;13.80;99.90;;;;;;5067236;28;20051;-78
2022/05/26 02:50:35;;;;;;;25.88;8.65;;;13.90;99.90;;;;;;5069195;28;20127;-78
2022/05/26 02:53:18;;;;;;;28.67;8.38;;;13.90;99.90;;;;;;5069253;28;20444;-78
2022/05/26 02:55:58;;;;;;;29.33;9.38;;;13.90;99.90;;;;;;5050212;28;20036;-78
2022/05/26 02:58:46;;;;;;;37.83;10.18;;;13.80;99.90;;;;;;5069656;28;20047;-77
2022/05/26 03:01:32;;;;;;;29.17;9.55;;;13.80;99.90;;;;;;5062289;28;20111;-77
2022/05/26 03:04:19;;;;;;;32.72;9.27;;;13.80;99.90;;;;;;5060023;28;20044;-77
2022/05/26 03:06:49;;;;;;;27.42;7.80;;;13.80;99.90;;;;;;5070576;28;20043;-77
2022/05/26 03:09:16;;;;;;;30.67;7.97;;;13.70;99.90;;;;;;5070981;28;20370;-78
2022/05/26 03:11:51;;;;;;;28.30;7.97;;;13.70;99.90;;;;;;5070466;28;20178;-78
2022/05/26 03:14:19;;;;;;;23.73;7.45;;;13.70;99.90;;;;;;5066280;28;20053;-77
2022/05/26 03:16:44;;;;;;;30.27;9.40;;;13.60;99.90;;;;;;5071412;28;20040;-78
2022/05/26 03:19:11;;;;;;;29.80;7.55;;;13.60;99.90;;;;;;5057015;28;20089;-77
2022/05/26 03:21:38;;;;;;;25.25;7.65;;;13.60;99.90;;;;;;5061544;28;20033;-78
2022/05/26 03:24:04;;;;;;;24.23;7.53;;;13.50;99.90;;;;;;5064929;28;20998;-77
2022/05/26 03:26:30;;;;;;;30.50;7.20;;;13.50;99.90;;;;;;5069004;28;20067;-78
2022/05/26 03:28:56;;;;;;;32.33;9.38;;;13.50;99.90;;;;;;5069979;28;20091;-77
2022/05/26 03:31:21;;;;;;;27.02;7.65;;;13.50;99.90;;;;;;5082422;28;20040;-77
2022/05/26 03:42:00;;;;;;;20.52;5.28;;;13.50;99.90;;;;;;5066237;28;20486;-77
2022/05/26 03:44:28;;;;;;;16.33;4.75;;;13.50;99.90;;;;;;5067611;28;20462;-77
2022/05/26 03:46:54;;;;;;;21.73;5.03;;;13.50;99.90;;;;;;5067716;28;20087;-77
2022/05/26 03:49:19;;;;;;;18.00;4.50;;;13.60;99.90;;;;;;5047735;28;20064;-77
2022/05/26 03:51:45;;;;;;;18.15;5.20;;;13.50;99.90;;;;;;5068322;28;20098;-77
2022/05/26 03:54:11;;;;;;;18.83;4.03;;;13.60;99.90;;;;;;5065113;28;20041;-78
2022/05/26 03:56:37;;;;;;;18.02;4.60;;;13.50;99.90;;;;;;5071639;28;21441;-78
2022/05/26 03:59:02;;;;;;;16.23;3.58;;;13.50;99.90;;;;;;5049180;28;20071;-77
2022/05/26 04:01:28;;;;;;;16.70;4.40;;;13.50;99.90;;;;;;5064948;28;20090;-77
2022/05/26 04:03:55;;;;;;;14.23;3.78;;;13.50;99.90;;;;;;5050742;28;20418;-77
2022/05/26 04:06:21;;;;;;;12.90;3.67;;;13.40;99.90;;;;;;5066831;28;20118;-77
2022/05/26 04:08:47;;;;;;;13.90;4.03;;;13.40;99.90;;;;;;5068486;28;20440;-77
2022/05/26 04:11:13;;;;;;;10.77;3.53;;;13.40;99.90;;;;;;5062975;28;20039;-77
2022/05/26 04:13:39;;;;;;;15.68;4.18;;;13.50;99.90;;;;;;5052100;28;20041;-77
2022/05/26 04:16:05;;;;;;;15.68;3.88;;;13.50;99.90;;;;;;5067932;28;20752;-77
2022/05/26 04:18:30;;;;;;;14.40;4.05;;;13.40;99.90;;;;;;5068889;28;20049;-77
2022/05/26 04:21:05;;;;;;;11.57;3.40;;;13.40;99.90;;;;;;5082128;28;20048;-77
2022/05/26 04:23:30;;;;;;;10.02;3.40;;;13.40;99.90;;;;;;5069067;28;20055;-77
2022/05/26 04:25:56;;;;;;;15.93;3.47;;;13.40;99.90;;;;;;5085960;28;20044;-77
2022/05/26 04:28:21;;;;;;;13.95;4.05;;;13.40;99.90;;;;;;5066219;28;20550;-77
2022/05/26 04:30:47;;;;;;;14.70;3.50;;;13.40;99.90;;;;;;5062055;28;20094;-77
2022/05/26 04:33:13;;;;;;;7.43;2.88;;;13.40;99.90;;;;;;5051153;28;20032;-77
2022/05/26 04:35:38;;;;;;;15.15;3.20;;;13.40;99.90;;;;;;5064927;28;20090;-77
2022/05/26 04:38:04;;;;;;;9.20;3.20;;;13.50;99.90;;;;;;5069281;28;20520;-77
2022/05/26 04:40:29;;;;;;;13.18;3.35;;;13.50;99.90;;;;;;5061673;28;20056;-77
2022/05/26 04:42:55;;;;;;;13.80;3.17;;;13.50;99.90;;;;;;5055919;28;20298;-77
2022/05/26 04:45:20;;;;;;;15.82;3.10;;;13.60;99.90;;;;;;5062497;28;20051;-77
2022/05/26 04:47:46;;;;;;;11.98;3.13;;;13.60;99.90;;;;;;5064197;28;20072;-77
2022/05/26 04:50:12;;;;;;;12.25;3.63;;;13.60;99.90;;;;;;5067665;28;20059;-76
2022/05/26 04:52:38;;;;;;;14.48;3.90;;;13.70;99.90;;;;;;5065293;28;20044;-77
2022/05/26 04:55:05;;;;;;;8.90;3.42;;;13.70;99.90;;;;;;5064820;28;20055;-77
2022/05/26 04:57:30;;;;;;;12.98;2.95;;;13.80;99.90;;;;;;5081203;28;20047;-77
2022/05/26 04:59:56;;;;;;;11.68;3.40;;;13.80;99.90;;;;;;5066516;28;20037;-77
2022/05/26 05:02:22;;;;;;;13.15;3.42;;;13.90;99.90;;;;;;5062769;28;20052;-77
2022/05/26 05:04:48;;;;;;;7.88;2.45;;;13.90;99.90;;;;;;5066939;28;20408;-77
2022/05/26 05:07:18;;;;;;;10.88;3.03;;;13.90;99.90;;;;;;5052845;28;20178;-77
2022/05/26 05:09:45;;;;;;;10.43;2.53;;;14.00;99.90;;;;;;5068033;28;20028;-77
2022/05/26 05:12:15;;;;;;;9.77;2.45;;;14.00;99.90;;;;;;5066700;28;20044;-77
2022/05/26 05:14:44;;;;;;;9.13;2.85;;;14.20;99.90;;;;;;5050182;28;20036;-77
2022/05/26 05:17:11;;;;;;;14.43;3.45;;;14.30;99.90;;;;;;5061568;28;20060;-77
2022/05/26 05:19:36;;;;;;;9.25;2.30;;;14.30;99.90;;;;;;5064646;28;20048;-77
2022/05/26 05:22:14;;;;;;;7.97;2.25;;;14.40;99.90;;;;;;5070210;28;20052;-77
2022/05/26 05:24:49;;;;;;;5.68;1.80;;;14.50;99.90;;;;;;5068883;28;20044;-77
2022/05/26 05:27:26;;;;;;;7.68;2.25;;;14.60;99.90;;;;;;5068600;28;20068;-77
2022/05/26 05:29:56;;;;;;;7.47;2.28;;;14.70;99.90;;;;;;5065044;28;20052;-77
2022/05/26 05:32:44;;;;;;;7.35;1.77;;;14.70;99.90;;;;;;5068361;28;20502;-77
2022/05/26 05:35:14;;;;;;;8.90;2.35;;;14.80;99.90;;;;;;5048011;28;20049;-77
2022/05/26 05:37:40;;;;;;;7.53;1.73;;;14.80;99.90;;;;;;5046184;28;20097;-77
2022/05/26 05:40:06;;;;;;;6.20;1.55;;;14.90;99.90;;;;;;5068847;28;20078;-77
2022/05/26 05:42:32;;;;;;;6.53;1.73;;;15.00;99.90;;;;;;5053082;28;20520;-77
2022/05/26 05:44:58;;;;;;;6.40;1.52;;;15.10;99.90;;;;;;5070132;28;20072;-77
2022/05/26 05:47:24;;;;;;;8.00;1.60;;;15.30;99.90;;;;;;5070688;28;20119;-77
2022/05/26 05:49:50;;;;;;;6.68;1.70;;;15.80;99.90;;;;;;5046947;28;20064;-77
2022/05/26 05:52:19;;;;;;;6.43;1.40;;;17.20;99.90;;;;;;5071585;28;20037;-77
2022/05/26 05:54:44;;;;;;;5.55;1.58;;;17.80;99.90;;;;;;5065285;28;20048;-77
2022/05/26 05:57:10;;;;;;;8.00;1.58;;;17.90;99.90;;;;;;5071594;28;20056;-78
2022/05/26 05:59:36;;;;;;;6.28;1.67;;;18.10;99.90;;;;;;5067208;28;20033;-77
2022/05/26 06:02:02;;;;;;;5.55;1.27;;;18.10;99.90;;;;;;5061701;28;20374;-77
2022/05/26 06:04:27;;;;;;;5.15;1.55;;;18.20;99.90;;;;;;5071325;28;20040;-77
2022/05/26 06:06:53;;;;;;;6.45;1.40;;;19.00;99.90;;;;;;5070582;28;20109;-78
2022/05/26 06:09:20;;;;;;;6.47;1.80;;;20.40;99.90;;;;;;5070992;28;20087;-77
2022/05/26 06:11:47;;;;;;;6.47;1.33;;;21.50;99.40;;;;;;5067140;28;20051;-77
2022/05/26 06:14:12;;;;;;;5.25;1.60;;;22.50;97.10;;;;;;5069885;28;20066;-78
2022/05/26 06:16:38;;;;;;;5.30;1.50;;;23.50;94.70;;;;;;5070879;28;20071;-77
2022/05/26 06:19:04;;;;;;;4.32;1.15;;;24.30;93.70;;;;;;5064392;28;20098;-78
2022/05/26 06:21:31;;;;;;;5.65;1.58;;;25.00;90.70;;;;;;5071570;28;20037;-78
2022/05/26 06:23:57;;;;;;;6.05;1.35;;;25.40;87.30;;;;;;5069566;28;20562;-79
2022/05/26 06:26:28;;;;;;;4.80;1.55;;;25.60;86.10;;;;;;5065622;28;20033;-79
2022/05/26 06:31:39;;;;;;;8.00;1.30;;;25.80;81.90;;;;;;5074030;28;20044;-78
2022/05/26 06:39:34;;;;;;;5.72;1.15;;;26.90;78.20;;;;;;5063841;28;20052;-78
2022/05/26 06:42:05;;;;;;;6.07;1.08;;;27.20;75.90;;;;;;5072463;28;20052;-78
2022/05/26 06:44:31;;;;;;;4.57;1.30;;;27.30;73.50;;;;;;5055488;28;20070;-78
2022/05/26 06:46:57;;;;;;;4.10;1.00;;;27.70;73.40;;;;;;5061613;28;20040;-78
2022/05/26 06:49:22;;;;;;;4.20;1.10;;;28.10;72.20;;;;;;5060518;28;20032;-78
2022/05/26 06:51:48;;;;;;;3.30;0.82;;;28.10;70.70;;;;;;5075814;28;20132;-78
2022/05/26 06:54:13;;;;;;;2.72;0.95;;;28.20;68.30;;;;;;5073112;28;20033;-78
2022/05/26 06:56:39;;;;;;;4.03;1.05;;;28.50;65.50;;;;;;5057093;28;20043;-78
2022/05/26 06:59:05;;;;;;;3.85;1.10;;;27.80;64.20;;;;;;5068703;28;20051;-78
2022/05/26 07:01:30;;;;;;;6.18;0.88;;;27.90;63.70;;;;;;5066218;28;20040;-77
2022/05/26 07:03:56;;;;;;;4.18;0.93;;;27.30;64.00;;;;;;5069577;28;20806;-78
2022/05/26 07:06:24;;;;;;;2.20;0.80;;;26.70;65.10;;;;;;5070503;28;20044;-78
2022/05/26 07:08:51;;;;;;;3.53;1.23;;;26.30;66.80;;;;;;5067609;28;20052;-77
2022/05/26 07:11:17;;;;;;;2.08;0.80;;;25.80;68.50;;;;;;5070724;28;20165;-78
2022/05/26 07:13:43;;;;;;;3.30;1.40;;;24.60;69.60;;;;;;5052487;28;20462;-77
2022/05/26 07:16:10;;;;;;;3.70;1.08;;;24.10;72.50;;;;;;5068409;28;20037;-78
2022/05/26 07:18:40;;;;;;;4.82;0.90;;;23.90;74.20;;;;;;5054358;28;20040;-78
2022/05/26 07:21:07;;;;;;;3.00;0.88;;;23.30;74.20;;;;;;5068069;28;20179;-78
2022/05/26 07:23:34;;;;;;;3.97;1.08;;;23.20;75.10;;;;;;5060662;28;20040;-76
2022/05/26 07:26:03;;;;;;;3.38;0.90;;;22.80;77.20;;;;;;5062615;28;20171;-78
2022/05/26 07:28:28;;;;;;;4.20;0.95;;;22.30;78.50;;;;;;5066654;28;20051;-78
2022/05/26 07:30:54;;;;;;;4.53;1.00;;;22.10;79.20;;;;;;5074305;28;20036;-79
2022/05/26 07:33:20;;;;;;;4.88;1.20;;;22.00;79.70;;;;;;5066386;28;22141;-78
2022/05/26 07:35:46;;;;;;;4.90;1.40;;;21.70;80.70;;;;;;5054600;28;20055;-78
2022/05/26 07:43:42;;;;;;;4.82;1.02;;;21.40;83.30;;;;;;5080981;28;20053;-79
2022/05/26 07:46:09;;;;;;;5.25;1.08;;;21.30;84.70;;;;;;5076846;28;20543;-79
2022/05/26 07:48:34;;;;;;;3.75;1.00;;;21.50;83.40;;;;;;5060450;28;20045;-80
2022/05/26 07:51:00;;;;;;;3.58;1.02;;;21.70;82.10;;;;;;5070702;28;20043;-79
2022/05/26 07:53:26;;;;;;;3.50;0.95;;;21.70;81.80;;;;;;5057997;28;20445;-80
2022/05/26 07:55:51;;;;;;;3.40;1.05;;;21.70;82.50;;;;;;5057101;28;20080;-80
2022/05/26 07:58:17;;;;;;;2.13;0.70;;;22.00;82.30;;;;;;5070138;28;20159;-80
2022/05/26 08:00:43;;;;;;;5.00;1.30;;;21.90;79.70;;;;;;5058374;28;20044;-79
2022/05/26 08:03:09;;;;;;;2.58;0.90;;;21.70;82.90;;;;;;5070987;28;20032;-80
2022/05/26 08:05:37;;;;;;;3.15;0.80;;;21.60;82.20;;;;;;5072082;28;20547;-80
2022/05/26 08:08:03;;;;;;;3.30;0.98;;;21.50;82.20;;;;;;5058284;28;20047;-79
2022/05/26 08:10:28;;;;;;;2.50;0.90;;;21.00;84.10;;;;;;5070169;28;20413;-80
2022/05/26 08:12:54;;;;;;;4.43;1.10;;;20.90;85.90;;;;;;5070937;28;20033;-80
2022/05/26 08:15:20;;;;;;;7.53;1.13;;;20.80;83.60;;;;;;5069833;28;20048;-79
2022/05/26 08:17:45;;;;;;;4.78;1.10;;;21.00;85.60;;;;;;5042620;28;20469;-80
2022/05/26 08:20:11;;;;;;;5.68;0.93;;;20.80;86.30;;;;;;5059751;28;20071;-81
2022/05/26 08:22:37;;;;;;;4.13;1.38;;;20.90;87.10;;;;;;5070393;28;20425;-81
2022/05/26 08:25:03;;;;;;;4.30;0.85;;;20.90;86.70;;;;;;5069757;28;20402;-80
2022/05/26 08:27:28;;;;;;;5.95;1.20;;;21.00;88.00;;;;;;5069290;28;20043;-80
2022/05/26 08:29:54;;;;;;;4.40;1.05;;;21.00;87.20;;;;;;5041531;28;20033;-80
2022/05/26 08:32:21;;;;;;;5.88;1.13;;;21.00;87.50;;;;;;5060008;28;20553;-80
2022/05/26 08:34:48;;;;;;;4.00;0.90;;;21.10;86.80;;;;;;5061748;28;20033;-79
2022/05/26 08:37:15;;;;;;;3.85;1.05;;;21.10;86.20;;;;;;5070707;28;20047;-78
2022/05/26 08:39:40;;;;;;;3.10;0.60;;;21.10;86.00;;;;;;5067607;28;20041;-80
2022/05/26 08:42:10;;;;;;;3.78;0.98;;;21.20;86.00;;;;;;5068874;28;20460;-80
2022/05/26 08:44:38;;;;;;;2.65;0.85;;;21.20;85.40;;;;;;5070726;28;20048;-79
2022/05/26 08:47:20;;;;;;;4.03;1.27;;;21.30;84.80;;;;;;5058982;28;20123;-78
2022/05/26 08:49:56;;;;;;;3.25;0.90;;;21.20;85.60;;;;;;5041141;28;20131;-78
2022/05/26 08:52:44;;;;;;;3.72;0.77;;;20.90;85.60;;;;;;5069590;28;20048;-79
2022/05/26 08:55:17;;;;;;;2.17;0.82;;;21.00;86.00;;;;;;5065318;28;20775;-79
2022/05/26 08:57:51;;;;;;;3.88;0.90;;;20.80;86.20;;;;;;5068144;28;20040;-78
2022/05/26 09:00:21;;;;;;;2.42;0.80;;;20.90;86.70;;;;;;5059514;28;20058;-78
2022/05/26 09:02:48;;;;;;;3.28;1.10;;;20.80;86.90;;;;;;5064001;28;20045;-77
2022/05/26 09:05:17;;;;;;;5.18;0.98;;;20.50;87.50;;;;;;5049674;28;20037;-77
2022/05/26 09:13:52;;;;;;;2.95;0.88;;;20.70;87.50;;;;;;5064495;28;20048;-82
2022/05/26 09:16:20;;;;;;;3.97;1.00;;;20.80;87.10;;;;;;5069725;28;20045;-81
2022/05/26 09:19:06;;;;;;;3.25;0.80;;;20.60;87.00;;;;;;5071705;28;20056;-80
2022/05/26 09:21:31;;;;;;;3.80;0.80;;;20.50;87.60;;;;;;5074806;28;20105;-79
2022/05/26 09:24:30;;;;;;;2.75;0.93;;;20.60;87.60;;;;;;5073459;28;20044;-80
2022/05/26 09:27:05;;;;;;;3.75;1.17;;;20.50;86.80;;;;;;5069013;28;20056;-80
2022/05/26 09:29:34;;;;;;;4.57;0.80;;;20.10;86.50;;;;;;5076532;28;20048;-80
2022/05/26 09:32:02;;;;;;;3.58;0.98;;;20.30;87.60;;;;;;5063820;28;20124;-81
2022/05/26 09:34:34;;;;;;;8.48;0.93;;;20.50;87.80;;;;;;5055393;28;20060;-82
2022/05/26 09:37:07;;;;;;;6.28;1.02;;;20.40;87.60;;;;;;5076532;28;20040;-80
2022/05/26 09:39:42;;;;;;;6.25;0.80;;;20.30;86.90;;;;;;5075127;28;20060;-80
2022/05/26 09:42:17;;;;;;;2.53;0.80;;;20.40;88.60;;;;;;5053131;28;20048;-81
2022/05/26 09:44:59;;;;;;;2.58;0.90;;;20.40;88.80;;;;;;5065800;28;20040;-81
2022/05/26 09:47:39;;;;;;;5.43;0.70;;;20.60;87.90;;;;;;5069915;28;20402;-80
2022/05/26 09:50:09;;;;;;;2.58;0.90;;;20.30;87.10;;;;;;5075051;28;20043;-80
2022/05/26 09:52:42;;;;;;;2.20;0.95;;;20.40;88.50;;;;;;5068952;28;20040;-82
2022/05/26 09:55:21;;;;;;;3.55;0.80;;;20.40;88.20;;;;;;5064718;28;20044;-81
2022/05/26 09:57:47;;;;;;;1.92;0.70;;;20.50;87.90;;;;;;5054612;28;20154;-80
2022/05/26 10:00:41;;;;;;;3.72;0.95;;;20.50;88.30;;;;;;5069651;28;20082;-79
2022/05/26 10:03:44;;;;;;;4.55;0.80;;;20.50;87.90;;;;;;5054945;28;20049;-79
2022/05/26 10:06:22;;;;;;;6.07;1.08;;;20.50;87.90;;;;;;5071734;28;20064;-81
2022/05/26 10:09:17;;;;;;;2.58;0.93;;;20.50;89.20;;;;;;5071381;28;20053;-79
2022/05/26 10:11:51;;;;;;;4.65;1.08;;;20.80;89.60;;;;;;5074290;28;20047;-80
2022/05/26 10:14:31;;;;;;;4.22;0.73;;;20.80;88.70;;;;;;5083096;28;20032;-81
2022/05/26 10:17:28;;;;;;;4.85;0.80;;;21.00;88.30;;;;;;5069547;28;20036;-81
2022/05/26 10:20:19;;;;;;;2.92;0.73;;;20.90;88.60;;;;;;5065038;28;20048;-81
2022/05/26 10:22:49;;;;;;;2.40;0.80;;;21.00;88.30;;;;;;5063926;28;20459;-81
2022/05/26 10:25:19;;;;;;;3.70;0.90;;;21.00;88.40;;;;;;5070989;28;20182;-81
2022/05/26 10:28:25;;;;;;;2.42;0.70;;;21.00;87.10;;;;;;5056519;28;20036;-80
2022/05/26 10:31:12;;;;;;;4.65;1.13;;;20.80;88.20;;;;;;5088959;28;20057;-81
2022/05/26 10:33:41;;;;;;;2.33;0.75;;;20.90;88.80;;;;;;5060587;28;20381;-81
2022/05/26 10:36:45;;;;;;;3.60;1.20;;;20.80;89.00;;;;;;5066197;28;20093;-81
2022/05/26 10:39:36;;;;;;;4.15;1.30;;;20.90;88.80;;;;;;5083802;28;20101;-80
2022/05/26 10:42:26;;;;;;;3.13;0.95;;;20.70;85.80;;;;;;5073184;28;20113;-79
2022/05/26 10:45:06;;;;;;;5.05;1.05;;;20.70;88.30;;;;;;5068657;28;20174;-81
2022/05/26 10:47:42;;;;;;;2.30;0.90;;;20.70;89.60;;;;;;5076739;28;20080;-82
2022/05/26 10:50:48;;;;;;;2.65;0.80;;;20.90;88.30;;;;;;5078343;28;20051;-81
2022/05/26 10:53:40;;;;;;;2.50;0.85;;;20.90;87.90;;;;;;5068370;28;20063;-80
2022/05/26 10:56:21;;;;;;;3.58;0.90;;;20.70;88.50;;;;;;5072757;28;20040;-81
2022/05/26 10:58:53;;;;;;;3.85;0.82;;;20.60;87.00;;;;;;5079905;28;20059;-82
2022/05/26 11:01:28;;;;;;;;;;;20.70;90.10;;;;;;5089471;28;20037;-82
2022/05/26 11:04:01;;;;;;;3.40;0.90;;;20.80;90.20;;;;;;5077739;28;20015;-82
2022/05/26 11:06:30;;;;;;;2.15;0.73;;;21.00;90.10;;;;;;5059861;28;20393;-82
2022/05/26 11:08:58;;;;;;;4.68;1.10;;;21.00;89.40;;;;;;5053108;28;20470;-80
2022/05/26 11:11:36;;;;;;;3.72;1.15;;;21.10;87.40;;;;;;5078568;28;20071;-79
2022/05/26 11:17:37;;;;;;;2.63;0.95;;;21.00;89.50;;;;;;5070334;28;20056;-79
2022/05/26 11:20:24;;;;;;;4.15;1.13;;;21.00;89.60;;;;;;5073557;28;20524;-79
2022/05/26 11:22:51;;;;;;;5.78;1.45;;;20.70;89.40;;;;;;5044785;28;20123;-78
2022/05/26 11:25:25;;;;;;;2.33;0.90;;;20.50;90.70;;;;;;5054592;28;20076;-79
2022/05/26 11:28:09;;;;;;;4.78;1.25;;;20.40;90.90;;;;;;5073133;28;20068;-78
2022/05/26 11:36:39;;;;;;;5.72;1.40;;;19.80;92.60;;;;;;5062592;28;20055;-79
2022/05/26 11:39:15;;;;;;;4.65;1.30;;;20.00;92.70;;;;;;5072881;28;20466;-79
2022/05/26 11:41:54;;;;;;;2.55;1.05;;;20.10;93.80;;;;;;5069546;28;20056;-78
2022/05/26 11:44:41;;;;;;;4.40;1.33;;;20.30;93.30;;;;;;5060907;28;20135;-78
2022/05/26 11:47:26;;;;;;;3.83;1.10;;;20.40;92.40;;;;;;5052172;28;20079;-78
2022/05/26 11:49:51;;;;;;;4.40;1.02;;;20.40;92.60;;;;;;5045721;28;20057;-78
2022/05/26 11:52:25;;;;;;;3.35;1.08;;;20.30;92.30;;;;;;5053244;28;20040;-78
2022/05/26 11:54:59;;;;;;;4.05;1.30;;;20.20;92.80;;;;;;5045638;28;20316;-78
2022/05/26 11:57:43;;;;;;;4.47;1.20;;;20.30;93.00;;;;;;5081022;28;20504;-80
2022/05/26 12:00:14;;;;;;;3.30;1.00;;;20.60;92.20;;;;;;5052381;28;20052;-79
2022/05/26 12:02:40;;;;;;;;;;;20.70;91.90;;;;;;5066455;28;20041;-78
2022/05/26 12:05:39;;;;;;;2.95;1.27;;;20.70;91.90;;;;;;5064874;28;19923;-78
2022/05/26 12:08:22;;;;;;;4.05;0.95;;;20.60;92.40;;;;;;5041942;28;20044;-78
2022/05/26 12:10:56;;;;;;;2.42;0.90;;;20.60;92.30;;;;;;5070964;28;20401;-79
2022/05/26 12:13:27;;;;;;;5.95;1.05;;;20.40;91.80;;;;;;5063349;28;20055;-78
2022/05/26 12:16:14;;;;;;;6.38;1.20;;;20.50;91.90;;;;;;5088289;28;20367;-79
2022/05/26 12:18:59;;;;;;;3.40;1.00;;;20.30;92.10;;;;;;5050779;28;20474;-78
2022/05/26 12:21:28;;;;;;;6.30;1.20;;;20.30;92.70;;;;;;5042206;28;20040;-78
2022/05/26 12:23:58;;;;;;;3.45;0.95;;;20.10;92.40;;;;;;5069008;28;20033;-78
2022/05/26 12:26:29;;;;;;;3.08;1.33;;;20.10;92.90;;;;;;5069480;28;20079;-78
2022/05/26 12:29:14;;;;;;;4.55;1.00;;;19.90;93.00;;;;;;5054488;28;20036;-78
2022/05/26 12:32:15;;;;;;;5.35;1.27;;;19.90;93.60;;;;;;5073981;28;20051;-78
2022/05/26 12:35:05;;;;;;;3.97;1.15;;;20.00;93.70;;;;;;5071421;28;20052;-78
2022/05/26 12:37:40;;;;;;;4.90;1.27;;;20.00;93.90;;;;;;5076130;28;20058;-78
2022/05/26 12:40:20;;;;;;;4.47;1.35;;;20.00;93.90;;;;;;5074675;28;20048;-78
2022/05/26 12:42:59;;;;;;;3.75;0.90;;;20.00;93.30;;;;;;5069724;28;20378;-77
2022/05/26 12:45:38;;;;;;;5.68;1.50;;;19.90;93.70;;;;;;5069749;28;20044;-77
2022/05/26 12:48:18;;;;;;;3.58;1.20;;;19.80;93.30;;;;;;5060139;28;20090;-79
2022/05/26 12:50:44;;;;;;;3.83;1.33;;;19.70;93.80;;;;;;5077215;28;20105;-79
2022/05/26 12:53:18;;;;;;;3.85;1.40;;;19.70;94.00;;;;;;5084670;22;20051;-74
2022/05/26 12:56:00;;;;;;;3.55;1.20;;;19.70;94.50;;;;;;5054223;28;20059;-73
2022/05/26 12:58:31;;;;;;;3.90;1.50;;;19.80;93.90;;;;;;5055085;28;20051;-73
2022/05/26 13:00:57;;;;;;;6.25;1.63;;;19.80;94.10;;;;;;5070154;28;20076;-75
2022/05/26 13:03:42;;;;;;;5.93;1.63;;;19.50;93.40;;;;;;5054371;28;20136;-75
2022/05/26 13:06:09;;;;;;;4.97;1.50;;;19.50;93.60;;;;;;5073559;28;20044;-74
2022/05/26 13:08:55;;;;;;;4.65;1.20;;;19.50;94.30;;;;;;5072578;28;20127;-74
2022/05/26 13:11:31;;;;;;;4.32;1.40;;;19.50;94.60;;;;;;5072409;28;20477;-74
2022/05/26 13:14:00;;;;;;;5.07;1.33;;;19.70;93.60;;;;;;5072537;28;20397;-74
2022/05/26 13:16:39;;;;;;;5.22;1.60;;;19.90;93.90;;;;;;5048689;28;20499;-74
2022/05/26 13:19:17;;;;;;;4.43;1.35;;;19.90;93.80;;;;;;5078759;28;20135;-75
2022/05/26 13:21:49;;;;;;;4.63;1.20;;;19.80;93.50;;;;;;5073038;28;20041;-75
2022/05/26 13:24:23;;;;;;;4.68;1.13;;;19.60;93.80;;;;;;5069931;28;20392;-74
2022/05/26 13:26:55;;;;;;;3.60;1.20;;;19.60;94.30;;;;;;5051868;28;20036;-74
2022/05/26 13:29:21;;;;;;;;;;;19.50;94.30;;;;;;5044549;28;20397;-74
2022/05/26 13:34:41;;;;;;;3.83;1.52;;;19.50;93.90;;;;;;5070784;28;20053;-74
2022/05/26 13:37:27;;;;;;;7.18;1.35;;;19.50;94.20;;;;;;5066365;28;20052;-74
2022/05/26 13:40:13;;;;;;;5.78;1.70;;;19.50;94.50;;;;;;5057917;28;20037;-75
2022/05/26 13:42:42;;;;;;;6.47;1.70;;;19.50;95.00;;;;;;5067034;28;20048;-74
2022/05/26 13:45:13;;;;;;;5.75;1.75;;;19.70;94.70;;;;;;5072986;28;20044;-74
2022/05/26 13:47:39;;;;;;;4.63;1.50;;;19.80;94.70;;;;;;5064999;28;20417;-74
2022/05/26 13:50:08;;;;;;;4.60;1.30;;;19.80;94.40;;;;;;5062051;28;20040;-74